Terminal Aerodrome Forecast
Issued by NWS Grand Forks, ND

Home | Current Version | Previous Version | Text Only | Print | Product List | Glossary On
Versions: 1 2 3 4 5 6 7 8 9 10 11 12 13 14 15 16 17 18 19
812
FTUS43 KFGF 250010 AAA
TAFFAR
TAF AMD
KFAR 250010Z 2500/2524 34011KT P6SM VCSH OVC009
      TEMPO 2500/2502 OVC012
     FM250300 34009KT P6SM OVC008
     FM251000 35008KT P6SM OVC003
     FM251500 35007KT P6SM OVC008
     FM252000 36007KT P6SM OVC010=

USA.gov is the U.S. government's official web portal to all federal, state and local government web resources and services.